Weather at Upper Harford Airstrip [CLOSED]

Public forecast

Using degrees Celsius for public forecast. Weather courtesy of forecast.io.

Closest aviation weather report (METAR) to Upper Harford Airstrip

Closest report is RAF Brize Norton, 12.0 nm (22.3 km) SE.

2024/05/29 01:50 (retrieved 35 minutes ago)

EGVN 290150Z 23006KT 9999 -DZ FEW005 SCT020 BKN050 12/11 Q1008 TEMPO BKN012

Closest aviation forecast (TAF) to Upper Harford Airstrip

Forecast is more than 6 hours old.

Closest forecast is RAF Fairford, 12.5 nm (23.1 km) S.

2024/05/28 15:03 Ammendment (retrieved 11 hours ago)

AMD EGVA 281555Z 2815/2917 23012G20KT 9999 SCT015 OVC020 QNH2977INS BECMG 2814/2815 25015G25KT 9999 NSW SCT012 BKN015 510003 QNH2975INS TEMPO 2816/2819 9000 -RA BECMG 2822/2823 25012G18KT 9999 BKN015 QNH2975INS BECMG 2907/2908 27010G18KT 9999 SCT015 BKN030 QNH2980INS TX18/2816Z TN11/2904Z LAST NO AMDS AFT 2816 NEXT 2903